sensor_id;sensor_type;location;lat;lon;timestamp;temperature;humidity
13496;DHT22;6820;49.374;8.452;2023-03-01T00:01:19;2.40;99.99
13496;DHT22;6820;49.374;8.452;2023-03-01T00:05:22;2.40;99.99
13496;DHT22;6820;49.374;8.452;2023-03-01T00:09:24;2.37;99.99
13496;DHT22;6820;49.374;8.452;2023-03-01T00:13:26;2.29;99.99
13496;DHT22;6820;49.374;8.452;2023-03-01T00:17:27;2.27;99.99
13496;DHT22;6820;49.374;8.452;2023-03-01T00:21:29;2.25;99.99
13496;DHT22;6820;49.374;8.452;2023-03-01T00:25:31;2.25;99.99
13496;DHT22;6820;49.374;8.452;2023-03-01T00:29:33;2.20;99.99
13496;DHT22;6820;49.374;8.452;2023-03-01T00:33:34;2.23;99.99
13496;DHT22;6820;49.374;8.452;2023-03-01T00:37:36;2.19;99.99
13496;DHT22;6820;49.374;8.452;2023-03-01T00:41:38;2.15;99.99
13496;DHT22;6820;49.374;8.452;2023-03-01T00:45:42;2.15;99.99
13496;DHT22;6820;49.374;8.452;2023-03-01T00:49:43;2.11;99.99
13496;DHT22;6820;49.374;8.452;2023-03-01T00:53:45;2.09;99.99
13496;DHT22;6820;49.374;8.452;2023-03-01T00:57:47;2.04;99.99
13496;DHT22;6820;49.374;8.452;2023-03-01T01:01:49;2.00;99.99
13496;DHT22;6820;49.374;8.452;2023-03-01T01:05:51;1.98;99.99
13496;DHT22;6820;49.374;8.452;2023-03-01T01:09:53;1.93;99.99
13496;DHT22;6820;49.374;8.452;2023-03-01T01:13:55;1.95;99.99
13496;DHT22;6820;49.374;8.452;2023-03-01T01:17:59;1.93;99.99
13496;DHT22;6820;49.374;8.452;2023-03-01T01:22:01;1.95;99.99
13496;DHT22;6820;49.374;8.452;2023-03-01T01:26:13;1.92;99.99
13496;DHT22;6820;49.374;8.452;2023-03-01T01:30:20;1.83;99.99
13496;DHT22;6820;49.374;8.452;2023-03-01T01:34:21;1.74;99.99
13496;DHT22;6820;49.374;8.452;2023-03-01T01:38:26;1.68;99.99
13496;DHT22;6820;49.374;8.452;2023-03-01T01:42:28;1.64;99.99
13496;DHT22;6820;49.374;8.452;2023-03-01T01:46:32;1.64;99.99
13496;DHT22;6820;49.374;8.452;2023-03-01T01:50:36;1.65;99.99
13496;DHT22;6820;49.374;8.452;2023-03-01T01:58:49;1.68;99.99
13496;DHT22;6820;49.374;8.452;2023-03-01T02:02:52;1.68;99.99
13496;DHT22;6820;49.374;8.452;2023-03-01T02:07:07;1.61;99.99
13496;DHT22;6820;49.374;8.452;2023-03-01T02:11:15;1.50;99.99
13496;DHT22;6820;49.374;8.452;2023-03-01T02:15:17;1.46;99.99
13496;DHT22;6820;49.374;8.452;2023-03-01T02:19:22;1.42;99.99
13496;DHT22;6820;49.374;8.452;2023-03-01T02:23:48;1.32;99.99
13496;DHT22;6820;49.374;8.452;2023-03-01T02:28:05;1.25;99.99
13496;DHT22;6820;49.374;8.452;2023-03-01T02:32:13;1.18;99.99
13496;DHT22;6820;49.374;8.452;2023-03-01T02:36:20;1.17;99.99
13496;DHT22;6820;49.374;8.452;2023-03-01T02:40:24;1.14;99.99
13496;DHT22;6820;49.374;8.452;2023-03-01T02:44:26;1.08;99.99
13496;DHT22;6820;49.374;8.452;2023-03-01T02:48:27;1.02;99.99
13496;DHT22;6820;49.374;8.452;2023-03-01T02:56:46;0.92;99.99
13496;DHT22;6820;49.374;8.452;2023-03-01T03:00:53;0.78;99.99
13496;DHT22;6820;49.374;8.452;2023-03-01T03:04:55;0.82;99.99
13496;DHT22;6820;49.374;8.452;2023-03-01T03:08:57;0.82;99.99
13496;DHT22;6820;49.374;8.452;2023-03-01T03:13:00;0.86;99.99
13496;DHT22;6820;49.374;8.452;2023-03-01T03:17:06;0.78;99.99
13496;DHT22;6820;49.374;8.452;2023-03-01T03:21:08;0.77;99.99
13496;DHT22;6820;49.374;8.452;2023-03-01T03:25:11;0.74;99.99
13496;DHT22;6820;49.374;8.452;2023-03-01T03:29:13;0.74;99.99
13496;DHT22;6820;49.374;8.452;2023-03-01T03:33:15;0.74;99.99
13496;DHT22;6820;49.374;8.452;2023-03-01T03:37:17;0.71;99.99
13496;DHT22;6820;49.374;8.452;2023-03-01T03:41:39;0.74;99.99
13496;DHT22;6820;49.374;8.452;2023-03-01T03:45:41;0.74;99.99
13496;DHT22;6820;49.374;8.452;2023-03-01T03:49:44;0.64;99.99
13496;DHT22;6820;49.374;8.452;2023-03-01T03:53:46;0.68;99.99
13496;DHT22;6820;49.374;8.452;2023-03-01T03:57:48;0.64;99.99
13496;DHT22;6820;49.374;8.452;2023-03-01T04:01:52;0.56;99.99
13496;DHT22;6820;49.374;8.452;2023-03-01T04:05:54;0.41;99.99
13496;DHT22;6820;49.374;8.452;2023-03-01T04:09:59;0.34;99.99
13496;DHT22;6820;49.374;8.452;2023-03-01T04:14:00;0.23;99.99
13496;DHT22;6820;49.374;8.452;2023-03-01T04:18:02;0.25;99.99
13496;DHT22;6820;49.374;8.452;2023-03-01T04:22:04;0.23;99.99
13496;DHT22;6820;49.374;8.452;2023-03-01T04:26:10;0.22;99.99
13496;DHT22;6820;49.374;8.452;2023-03-01T04:30:12;0.23;99.99
13496;DHT22;6820;49.374;8.452;2023-03-01T04:34:13;0.22;99.99
13496;DHT22;6820;49.374;8.452;2023-03-01T04:38:16;0.20;99.99
13496;DHT22;6820;49.374;8.452;2023-03-01T04:42:18;0.22;99.99
13496;DHT22;6820;49.374;8.452;2023-03-01T04:46:20;0.20;99.99
13496;DHT22;6820;49.374;8.452;2023-03-01T04:50:30;0.17;99.99
13496;DHT22;6820;49.374;8.452;2023-03-01T04:54:32;0.23;99.99
13496;DHT22;6820;49.374;8.452;2023-03-01T04:58:35;0.33;99.99
13496;DHT22;6820;49.374;8.452;2023-03-01T05:02:36;0.33;99.99
13496;DHT22;6820;49.374;8.452;2023-03-01T05:06:38;0.33;99.99
13496;DHT22;6820;49.374;8.452;2023-03-01T05:10:40;0.28;99.99
13496;DHT22;6820;49.374;8.452;2023-03-01T05:14:43;0.33;99.99
13496;DHT22;6820;49.374;8.452;2023-03-01T05:18:44;0.34;99.99
13496;DHT22;6820;49.374;8.452;2023-03-01T05:22:47;0.38;99.99
13496;DHT22;6820;49.374;8.452;2023-03-01T05:26:48;0.43;99.99
13496;DHT22;6820;49.374;8.452;2023-03-01T05:30:51;0.45;99.99
13496;DHT22;6820;49.374;8.452;2023-03-01T05:34:53;0.48;99.99
13496;DHT22;6820;49.374;8.452;2023-03-01T05:38:56;0.53;99.99
13496;DHT22;6820;49.374;8.452;2023-03-01T05:42:57;0.53;99.99
13496;DHT22;6820;49.374;8.452;2023-03-01T05:46:59;0.49;99.99
13496;DHT22;6820;49.374;8.452;2023-03-01T05:51:07;0.51;99.99
13496;DHT22;6820;49.374;8.452;2023-03-01T05:55:19;0.56;99.99
13496;DHT22;6820;49.374;8.452;2023-03-01T05:59:25;0.51;99.99
13496;DHT22;6820;49.374;8.452;2023-03-01T06:03:29;0.53;99.99
13496;DHT22;6820;49.374;8.452;2023-03-01T06:07:34;0.53;99.99
13496;DHT22;6820;49.374;8.452;2023-03-01T06:11:43;0.51;99.99
13496;DHT22;6820;49.374;8.452;2023-03-01T06:15:52;0.49;99.99
13496;DHT22;6820;49.374;8.452;2023-03-01T06:19:54;0.45;99.99
13496;DHT22;6820;49.374;8.452;2023-03-01T06:23:56;0.43;99.99
13496;DHT22;6820;49.374;8.452;2023-03-01T06:28:03;0.48;99.99
13496;DHT22;6820;49.374;8.452;2023-03-01T06:32:14;0.51;99.99
13496;DHT22;6820;49.374;8.452;2023-03-01T06:36:20;0.52;99.99
13496;DHT22;6820;49.374;8.452;2023-03-01T06:40:25;0.53;99.99
13496;DHT22;6820;49.374;8.452;2023-03-01T06:44:34;0.59;99.99
13496;DHT22;6820;49.374;8.452;2023-03-01T06:48:43;0.64;99.99
13496;DHT22;6820;49.374;8.452;2023-03-01T06:52:45;0.70;99.99
13496;DHT22;6820;49.374;8.452;2023-03-01T06:56:55;0.72;99.99
13496;DHT22;6820;49.374;8.452;2023-03-01T07:01:07;0.78;99.99
13496;DHT22;6820;49.374;8.452;2023-03-01T07:05:09;0.82;99.99
13496;DHT22;6820;49.374;8.452;2023-03-01T07:09:10;0.90;99.99
13496;DHT22;6820;49.374;8.452;2023-03-01T07:13:12;0.99;99.99
13496;DHT22;6820;49.374;8.452;2023-03-01T07:17:14;1.04;99.99
13496;DHT22;6820;49.374;8.452;2023-03-01T07:21:15;1.08;99.99
13496;DHT22;6820;49.374;8.452;2023-03-01T07:25:17;1.16;99.99
13496;DHT22;6820;49.374;8.452;2023-03-01T07:29:19;1.20;99.99
13496;DHT22;6820;49.374;8.452;2023-03-01T07:33:21;1.28;99.99
13496;DHT22;6820;49.374;8.452;2023-03-01T07:37:22;1.35;99.99
13496;DHT22;6820;49.374;8.452;2023-03-01T07:41:24;1.44;99.99
13496;DHT22;6820;49.374;8.452;2023-03-01T07:45:26;1.52;99.99
13496;DHT22;6820;49.374;8.452;2023-03-01T07:49:28;1.63;99.99
13496;DHT22;6820;49.374;8.452;2023-03-01T07:53:30;1.70;99.99
13496;DHT22;6820;49.374;8.452;2023-03-01T07:57:32;1.77;99.99
13496;DHT22;6820;49.374;8.452;2023-03-01T08:01:34;1.88;99.99
13496;DHT22;6820;49.374;8.452;2023-03-01T08:05:35;1.98;99.99
13496;DHT22;6820;49.374;8.452;2023-03-01T08:09:37;2.08;99.99
13496;DHT22;6820;49.374;8.452;2023-03-01T08:13:39;2.18;99.99
13496;DHT22;6820;49.374;8.452;2023-03-01T08:17:40;2.27;99.99
13496;DHT22;6820;49.374;8.452;2023-03-01T08:21:42;2.37;99.99
13496;DHT22;6820;49.374;8.452;2023-03-01T08:25:44;2.44;99.99
13496;DHT22;6820;49.374;8.452;2023-03-01T08:29:45;2.51;99.99
13496;DHT22;6820;49.374;8.452;2023-03-01T08:33:48;2.63;99.99
13496;DHT22;6820;49.374;8.452;2023-03-01T08:37:56;2.73;99.99
13496;DHT22;6820;49.374;8.452;2023-03-01T08:41:57;2.84;99.99
13496;DHT22;6820;49.374;8.452;2023-03-01T08:45:59;2.97;99.99
13496;DHT22;6820;49.374;8.452;2023-03-01T08:50:01;3.04;99.99
13496;DHT22;6820;49.374;8.452;2023-03-01T08:54:06;3.15;99.99
13496;DHT22;6820;49.374;8.452;2023-03-01T08:58:12;3.28;99.99
13496;DHT22;6820;49.374;8.452;2023-03-01T09:02:15;3.39;99.99
13496;DHT22;6820;49.374;8.452;2023-03-01T09:06:18;3.49;99.99
13496;DHT22;6820;49.374;8.452;2023-03-01T09:10:20;3.57;99.99
13496;DHT22;6820;49.374;8.452;2023-03-01T09:14:21;3.63;99.99
13496;DHT22;6820;49.374;8.452;2023-03-01T09:18:23;3.77;99.99
13496;DHT22;6820;49.374;8.452;2023-03-01T09:22:25;3.84;99.99
13496;DHT22;6820;49.374;8.452;2023-03-01T09:26:27;3.92;99.99
13496;DHT22;6820;49.374;8.452;2023-03-01T09:30:28;4.00;99.99
13496;DHT22;6820;49.374;8.452;2023-03-01T09:34:31;4.13;99.99
13496;DHT22;6820;49.374;8.452;2023-03-01T09:38:32;4.20;99.99
13496;DHT22;6820;49.374;8.452;2023-03-01T09:42:35;4.31;99.99
13496;DHT22;6820;49.374;8.452;2023-03-01T09:46:46;4.43;99.99
13496;DHT22;6820;49.374;8.452;2023-03-01T09:50:48;4.49;99.99
13496;DHT22;6820;49.374;8.452;2023-03-01T09:54:52;4.65;99.99
13496;DHT22;6820;49.374;8.452;2023-03-01T09:58:59;4.77;99.99
13496;DHT22;6820;49.374;8.452;2023-03-01T10:03:31;4.84;99.99
13496;DHT22;6820;49.374;8.452;2023-03-01T10:07:47;4.99;99.99
13496;DHT22;6820;49.374;8.452;2023-03-01T10:12:00;5.09;99.99
13496;DHT22;6820;49.374;8.452;2023-03-01T10:16:05;5.24;99.99
13496;DHT22;6820;49.374;8.452;2023-03-01T10:24:19;5.41;99.99
13496;DHT22;6820;49.374;8.452;2023-03-01T10:33:03;5.52;99.99
13496;DHT22;6820;49.374;8.452;2023-03-01T10:37:14;5.60;99.99
13496;DHT22;6820;49.374;8.452;2023-03-01T10:41:17;5.75;99.99
13496;DHT22;6820;49.374;8.452;2023-03-01T10:49:27;6.02;99.99
13496;DHT22;6820;49.374;8.452;2023-03-01T10:53:33;6.11;99.99
13496;DHT22;6820;49.374;8.452;2023-03-01T10:57:40;6.17;99.99
13496;DHT22;6820;49.374;8.452;2023-03-01T11:01:43;6.16;99.99
13496;DHT22;6820;49.374;8.452;2023-03-01T11:06:04;6.25;99.99
13496;DHT22;6820;49.374;8.452;2023-03-01T11:10:15;6.32;99.99
13496;DHT22;6820;49.374;8.452;2023-03-01T11:14:37;6.46;99.99
13496;DHT22;6820;49.374;8.452;2023-03-01T11:18:42;6.60;99.99
13496;DHT22;6820;49.374;8.452;2023-03-01T11:22:50;6.61;99.99
13496;DHT22;6820;49.374;8.452;2023-03-01T11:26:55;6.79;99.99
13496;DHT22;6820;49.374;8.452;2023-03-01T11:31:05;6.81;99.99
13496;DHT22;6820;49.374;8.452;2023-03-01T11:35:18;7.04;99.99
13496;DHT22;6820;49.374;8.452;2023-03-01T11:44:02;7.36;99.99
13496;DHT22;6820;49.374;8.452;2023-03-01T11:56:44;7.48;99.99
13496;DHT22;6820;49.374;8.452;2023-03-01T12:01:01;7.58;99.99
13496;DHT22;6820;49.374;8.452;2023-03-01T12:27:43;8.27;99.99
13496;DHT22;6820;49.374;8.452;2023-03-01T12:32:15;8.36;99.99
13496;DHT22;6820;49.374;8.452;2023-03-01T12:49:16;8.61;99.99
13496;DHT22;6820;49.374;8.452;2023-03-01T12:53:31;8.58;99.99
13496;DHT22;6820;49.374;8.452;2023-03-01T12:57:40;8.68;99.99
13496;DHT22;6820;49.374;8.452;2023-03-01T13:01:53;8.82;99.99
13496;DHT22;6820;49.374;8.452;2023-03-01T13:18:27;9.08;99.99
13496;DHT22;6820;49.374;8.452;2023-03-01T13:22:32;9.10;99.99
13496;DHT22;6820;49.374;8.452;2023-03-01T13:27:08;9.15;99.99
13496;DHT22;6820;49.374;8.452;2023-03-01T13:39:32;9.31;99.99
13496;DHT22;6820;49.374;8.452;2023-03-01T13:43:41;9.41;99.99
13496;DHT22;6820;49.374;8.452;2023-03-01T13:47:45;9.45;99.99
13496;DHT22;6820;49.374;8.452;2023-03-01T13:51:50;9.48;99.99
13496;DHT22;6820;49.374;8.452;2023-03-01T13:56:36;9.49;99.99
13496;DHT22;6820;49.374;8.452;2023-03-01T14:00:25;9.56;99.99
13496;DHT22;6820;49.374;8.452;2023-03-01T14:04:30;9.56;99.99
13496;DHT22;6820;49.374;8.452;2023-03-01T14:08:34;9.65;99.99
13496;DHT22;6820;49.374;8.452;2023-03-01T14:21:41;9.80;99.99
13496;DHT22;6820;49.374;8.452;2023-03-01T14:25:47;9.86;99.99
13496;DHT22;6820;49.374;8.452;2023-03-01T14:30:00;9.88;99.99
13496;DHT22;6820;49.374;8.452;2023-03-01T14:34:21;9.96;99.99
13496;DHT22;6820;49.374;8.452;2023-03-01T14:38:29;10.01;99.99
13496;DHT22;6820;49.374;8.452;2023-03-01T14:42:36;10.07;99.99
13496;DHT22;6820;49.374;8.452;2023-03-01T14:46:38;10.06;99.99
13496;DHT22;6820;49.374;8.452;2023-03-01T14:50:42;10.09;99.99
13496;DHT22;6820;49.374;8.452;2023-03-01T14:54:49;10.09;99.99
13496;DHT22;6820;49.374;8.452;2023-03-01T14:58:58;10.16;99.99
13496;DHT22;6820;49.374;8.452;2023-03-01T15:03:47;10.24;99.99
13496;DHT22;6820;49.374;8.452;2023-03-01T15:07:29;10.24;99.99
13496;DHT22;6820;49.374;8.452;2023-03-01T15:11:33;10.25;99.99
13496;DHT22;6820;49.374;8.452;2023-03-01T15:16:20;10.32;99.99
13496;DHT22;6820;49.374;8.452;2023-03-01T15:20:17;10.24;99.99
13496;DHT22;6820;49.374;8.452;2023-03-01T15:24:23;10.29;99.99
13496;DHT22;6820;49.374;8.452;2023-03-01T15:28:27;10.14;99.99
13496;DHT22;6820;49.374;8.452;2023-03-01T15:32:32;10.10;99.99
13496;DHT22;6820;49.374;8.452;2023-03-01T15:40:48;9.96;99.99
13496;DHT22;6820;49.374;8.452;2023-03-01T15:45:06;9.83;99.99
13496;DHT22;6820;49.374;8.452;2023-03-01T15:53:55;9.62;99.99
13496;DHT22;6820;49.374;8.452;2023-03-01T15:58:09;9.50;99.99
13496;DHT22;6820;49.374;8.452;2023-03-01T16:02:14;9.34;99.99
13496;DHT22;6820;49.374;8.452;2023-03-01T16:06:16;9.30;99.99
13496;DHT22;6820;49.374;8.452;2023-03-01T16:10:18;9.19;99.99
13496;DHT22;6820;49.374;8.452;2023-03-01T16:14:20;9.16;99.99
13496;DHT22;6820;49.374;8.452;2023-03-01T16:18:23;9.08;99.99
13496;DHT22;6820;49.374;8.452;2023-03-01T16:22:25;8.97;99.99
13496;DHT22;6820;49.374;8.452;2023-03-01T16:26:28;8.88;99.99
13496;DHT22;6820;49.374;8.452;2023-03-01T16:30:30;8.78;99.99
13496;DHT22;6820;49.374;8.452;2023-03-01T16:34:32;8.68;99.99
13496;DHT22;6820;49.374;8.452;2023-03-01T16:38:33;8.57;99.99
13496;DHT22;6820;49.374;8.452;2023-03-01T16:42:36;8.50;99.99
13496;DHT22;6820;49.374;8.452;2023-03-01T16:46:41;8.40;99.99
13496;DHT22;6820;49.374;8.452;2023-03-01T16:50:43;8.32;99.99
13496;DHT22;6820;49.374;8.452;2023-03-01T16:54:45;8.22;99.99
13496;DHT22;6820;49.374;8.452;2023-03-01T16:58:46;8.12;99.99
13496;DHT22;6820;49.374;8.452;2023-03-01T17:02:48;8.10;99.99
13496;DHT22;6820;49.374;8.452;2023-03-01T17:06:50;8.03;99.99
13496;DHT22;6820;49.374;8.452;2023-03-01T17:10:51;7.95;99.99
13496;DHT22;6820;49.374;8.452;2023-03-01T17:14:53;7.85;99.99
13496;DHT22;6820;49.374;8.452;2023-03-01T17:18:55;7.79;99.99
13496;DHT22;6820;49.374;8.452;2023-03-01T17:22:56;7.70;99.99
13496;DHT22;6820;49.374;8.452;2023-03-01T17:26:58;7.63;99.99
13496;DHT22;6820;49.374;8.452;2023-03-01T17:31:01;7.58;99.99
13496;DHT22;6820;49.374;8.452;2023-03-01T17:35:03;7.57;99.99
13496;DHT22;6820;49.374;8.452;2023-03-01T17:39:06;7.51;99.99
13496;DHT22;6820;49.374;8.452;2023-03-01T17:43:08;7.48;99.99
13496;DHT22;6820;49.374;8.452;2023-03-01T17:47:10;7.42;99.99
13496;DHT22;6820;49.374;8.452;2023-03-01T17:51:11;7.37;99.99
13496;DHT22;6820;49.374;8.452;2023-03-01T17:55:13;7.34;99.99
13496;DHT22;6820;49.374;8.452;2023-03-01T17:59:14;7.27;99.99
13496;DHT22;6820;49.374;8.452;2023-03-01T18:03:19;7.24;99.99
13496;DHT22;6820;49.374;8.452;2023-03-01T18:07:21;7.16;99.99
13496;DHT22;6820;49.374;8.452;2023-03-01T18:11:24;7.11;99.99
13496;DHT22;6820;49.374;8.452;2023-03-01T18:15:25;7.00;99.99
13496;DHT22;6820;49.374;8.452;2023-03-01T18:19:27;6.97;99.99
13496;DHT22;6820;49.374;8.452;2023-03-01T18:23:29;6.89;99.99
13496;DHT22;6820;49.374;8.452;2023-03-01T18:27:32;6.82;99.99
13496;DHT22;6820;49.374;8.452;2023-03-01T18:31:34;6.75;99.99
13496;DHT22;6820;49.374;8.452;2023-03-01T18:35:36;6.65;99.99
13496;DHT22;6820;49.374;8.452;2023-03-01T18:39:38;6.60;99.99
13496;DHT22;6820;49.374;8.452;2023-03-01T18:43:41;6.54;99.99
13496;DHT22;6820;49.374;8.452;2023-03-01T18:47:43;6.50;99.99
13496;DHT22;6820;49.374;8.452;2023-03-01T18:51:45;6.46;99.99
13496;DHT22;6820;49.374;8.452;2023-03-01T18:55:47;6.42;99.99
13496;DHT22;6820;49.374;8.452;2023-03-01T18:59:48;6.36;99.99
13496;DHT22;6820;49.374;8.452;2023-03-01T19:03:50;6.28;99.99
13496;DHT22;6820;49.374;8.452;2023-03-01T19:07:53;6.21;99.99
13496;DHT22;6820;49.374;8.452;2023-03-01T19:11:54;6.16;99.99
13496;DHT22;6820;49.374;8.452;2023-03-01T19:16:06;6.10;99.99
13496;DHT22;6820;49.374;8.452;2023-03-01T19:20:10;6.03;99.99
13496;DHT22;6820;49.374;8.452;2023-03-01T19:24:12;6.02;99.99
13496;DHT22;6820;49.374;8.452;2023-03-01T19:28:14;5.99;99.99
13496;DHT22;6820;49.374;8.452;2023-03-01T19:32:16;5.92;99.99
13496;DHT22;6820;49.374;8.452;2023-03-01T19:36:17;5.84;99.99
13496;DHT22;6820;49.374;8.452;2023-03-01T19:40:21;5.80;99.99
13496;DHT22;6820;49.374;8.452;2023-03-01T19:44:23;5.74;99.99
13496;DHT22;6820;49.374;8.452;2023-03-01T19:48:25;5.70;99.99
13496;DHT22;6820;49.374;8.452;2023-03-01T19:52:27;5.67;99.99
13496;DHT22;6820;49.374;8.452;2023-03-01T19:56:29;5.62;99.99
13496;DHT22;6820;49.374;8.452;2023-03-01T20:00:32;5.58;99.99
13496;DHT22;6820;49.374;8.452;2023-03-01T20:04:34;5.49;99.99
13496;DHT22;6820;49.374;8.452;2023-03-01T20:08:36;5.45;99.99
13496;DHT22;6820;49.374;8.452;2023-03-01T20:12:37;5.38;99.99
13496;DHT22;6820;49.374;8.452;2023-03-01T20:16:40;5.35;99.99
13496;DHT22;6820;49.374;8.452;2023-03-01T20:20:41;5.33;99.99
13496;DHT22;6820;49.374;8.452;2023-03-01T20:24:43;5.24;99.99
13496;DHT22;6820;49.374;8.452;2023-03-01T20:28:46;5.27;99.99
13496;DHT22;6820;49.374;8.452;2023-03-01T20:32:48;5.22;99.99
13496;DHT22;6820;49.374;8.452;2023-03-01T20:36:50;5.19;99.99
13496;DHT22;6820;49.374;8.452;2023-03-01T20:41:02;5.15;99.99
13496;DHT22;6820;49.374;8.452;2023-03-01T20:45:05;5.11;99.99
13496;DHT22;6820;49.374;8.452;2023-03-01T20:49:07;5.12;99.99
13496;DHT22;6820;49.374;8.452;2023-03-01T20:53:10;5.09;99.99
13496;DHT22;6820;49.374;8.452;2023-03-01T20:57:12;5.04;99.99
13496;DHT22;6820;49.374;8.452;2023-03-01T21:01:15;5.02;99.99
13496;DHT22;6820;49.374;8.452;2023-03-01T21:05:19;5.01;99.99
13496;DHT22;6820;49.374;8.452;2023-03-01T21:09:20;4.99;99.99
13496;DHT22;6820;49.374;8.452;2023-03-01T21:13:22;4.94;99.99
13496;DHT22;6820;49.374;8.452;2023-03-01T21:17:25;4.88;99.99
13496;DHT22;6820;49.374;8.452;2023-03-01T21:21:27;4.83;99.99
13496;DHT22;6820;49.374;8.452;2023-03-01T21:25:28;4.77;99.99
13496;DHT22;6820;49.374;8.452;2023-03-01T21:29:35;4.79;99.99
13496;DHT22;6820;49.374;8.452;2023-03-01T21:33:39;4.77;99.99
13496;DHT22;6820;49.374;8.452;2023-03-01T21:37:43;4.67;99.99
13496;DHT22;6820;49.374;8.452;2023-03-01T21:41:45;4.68;99.99
13496;DHT22;6820;49.374;8.452;2023-03-01T21:45:50;4.65;99.99
13496;DHT22;6820;49.374;8.452;2023-03-01T21:49:51;4.61;99.99
13496;DHT22;6820;49.374;8.452;2023-03-01T21:53:53;4.57;99.99
13496;DHT22;6820;49.374;8.452;2023-03-01T21:57:56;4.53;99.99
13496;DHT22;6820;49.374;8.452;2023-03-01T22:01:57;4.49;99.99
13496;DHT22;6820;49.374;8.452;2023-03-01T22:06:00;4.43;99.99
13496;DHT22;6820;49.374;8.452;2023-03-01T22:10:02;4.43;99.99
13496;DHT22;6820;49.374;8.452;2023-03-01T22:14:04;4.43;99.99
13496;DHT22;6820;49.374;8.452;2023-03-01T22:18:06;4.36;99.99
13496;DHT22;6820;49.374;8.452;2023-03-01T22:22:08;4.32;99.99
13496;DHT22;6820;49.374;8.452;2023-03-01T22:26:19;4.29;99.99
13496;DHT22;6820;49.374;8.452;2023-03-01T22:30:27;4.24;99.99
13496;DHT22;6820;49.374;8.452;2023-03-01T22:34:29;4.18;99.99
13496;DHT22;6820;49.374;8.452;2023-03-01T22:38:31;4.17;99.99
13496;DHT22;6820;49.374;8.452;2023-03-01T22:42:32;4.17;99.99
13496;DHT22;6820;49.374;8.452;2023-03-01T22:46:34;4.13;99.99
13496;DHT22;6820;49.374;8.452;2023-03-01T22:50:36;4.18;99.99
13496;DHT22;6820;49.374;8.452;2023-03-01T22:54:37;4.11;99.99
13496;DHT22;6820;49.374;8.452;2023-03-01T22:58:39;4.10;99.99
13496;DHT22;6820;49.374;8.452;2023-03-01T23:02:41;4.04;99.99
13496;DHT22;6820;49.374;8.452;2023-03-01T23:06:43;3.99;99.99
13496;DHT22;6820;49.374;8.452;2023-03-01T23:10:53;3.99;99.99
13496;DHT22;6820;49.374;8.452;2023-03-01T23:14:55;3.96;99.99
13496;DHT22;6820;49.374;8.452;2023-03-01T23:18:57;3.92;99.99
13496;DHT22;6820;49.374;8.452;2023-03-01T23:22:59;3.89;99.99
13496;DHT22;6820;49.374;8.452;2023-03-01T23:27:02;3.89;99.99
13496;DHT22;6820;49.374;8.452;2023-03-01T23:31:05;3.82;99.99
13496;DHT22;6820;49.374;8.452;2023-03-01T23:35:08;3.80;99.99
13496;DHT22;6820;49.374;8.452;2023-03-01T23:39:11;3.74;99.99
13496;DHT22;6820;49.374;8.452;2023-03-01T23:43:14;3.67;99.99
13496;DHT22;6820;49.374;8.452;2023-03-01T23:47:16;3.54;99.99
13496;DHT22;6820;49.374;8.452;2023-03-01T23:51:18;3.44;99.99
13496;DHT22;6820;49.374;8.452;2023-03-01T23:55:19;3.39;99.99
13496;DHT22;6820;49.374;8.452;2023-03-01T23:59:23;3.34;99.99
